Time;durP1;ratioP1;P1;durP2;ratioP2;P2;SDS_P1;SDS_P2;PMS_P1;PMS_P2;Temp;Humidity;BMP_temperature;BMP_pressure;BME280_temperature;BME280_humidity;BME280_pressure;Samples;Min_cycle;Max_cycle;Signal;HPM_P1;HPM_P2
2021/12/27 00:02:25;;;;;;;;;;;5.70;99.90;;;;;;5115912;27;20375;-74
2021/12/27 00:04:50;;;;;;;;;;;5.80;99.90;;;;;;5135172;27;19907;-74
2021/12/27 00:07:16;;;;;;;;;;;5.90;99.90;;;;;;5134520;27;19915;-75
2021/12/27 00:09:41;;;;;;;;;;;6.00;99.90;;;;;;5135014;27;19962;-74
2021/12/27 00:12:07;;;;;;;;;;;6.00;99.90;;;;;;5134691;27;20356;-73
2021/12/27 00:14:33;;;;;;;;;;;6.10;99.90;;;;;;5132717;27;19912;-73
2021/12/27 00:16:59;;;;;;;;;;;6.10;99.90;;;;;;5134797;27;19914;-73
2021/12/27 00:19:24;;;;;;;;;;;6.10;99.90;;;;;;5133917;27;19957;-75
2021/12/27 00:21:50;;;;;;;;;;;6.10;99.90;;;;;;5134712;27;20381;-74
2021/12/27 00:24:16;;;;;;;;;;;6.00;99.90;;;;;;5134100;27;19911;-75
2021/12/27 00:26:41;;;;;;;;;;;6.00;99.90;;;;;;5134904;27;20411;-74
2021/12/27 00:29:07;;;;;;;;;;;6.00;99.90;;;;;;5134785;27;19907;-74
2021/12/27 00:31:32;;;;;;;;;;;6.00;99.90;;;;;;5134089;27;19912;-74
2021/12/27 00:33:58;;;;;;;;;;;6.00;99.90;;;;;;5135011;27;19908;-74
2021/12/27 00:36:23;;;;;;;;;;;5.90;99.90;;;;;;5133901;27;20002;-74
2021/12/27 00:38:49;;;;;;;;;;;5.90;99.90;;;;;;5134385;27;19914;-74
2021/12/27 00:41:15;;;;;;;;;;;5.90;99.90;;;;;;5134790;27;19908;-75
2021/12/27 00:43:40;;;;;;;;;;;5.80;99.90;;;;;;5134516;27;20301;-74
2021/12/27 00:46:06;;;;;;;;;;;5.80;99.90;;;;;;5134237;27;19914;-74
2021/12/27 00:48:31;;;;;;;;;;;5.90;99.90;;;;;;5133867;27;19908;-74
2021/12/27 00:50:57;;;;;;;;;;;5.90;99.90;;;;;;5134427;27;19920;-74
2021/12/27 00:53:22;;;;;;;;;;;5.90;99.90;;;;;;5132946;27;19934;-74
2021/12/27 00:55:48;;;;;;;;;;;6.00;99.90;;;;;;5134582;27;20371;-74
2021/12/27 00:58:14;;;;;;;;;;;5.90;99.90;;;;;;5134116;27;19907;-73
2021/12/27 01:00:39;;;;;;;;;;;6.00;99.90;;;;;;5115264;27;19915;-75
2021/12/27 01:03:05;;;;;;;;;;;6.00;99.90;;;;;;5134536;27;19919;-73
2021/12/27 01:05:31;;;;;;;;;;;5.90;99.90;;;;;;5133670;27;19908;-73
2021/12/27 01:07:56;;;;;;;;;;;5.90;99.90;;;;;;5134524;27;19948;-73
2021/12/27 01:13:19;;;;;;;;;;;5.90;99.90;;;;;;5134769;27;20408;-73
2021/12/27 01:15:52;;;;;;;;;;;5.80;99.90;;;;;;5134813;27;19907;-72
2021/12/27 01:18:19;;;;;;;;;;;5.70;99.90;;;;;;5134117;27;19964;-73
2021/12/27 01:20:44;;;;;;;;;;;5.70;99.90;;;;;;5134373;27;19950;-73
2021/12/27 01:23:10;;;;;;;;;;;5.60;99.90;;;;;;5134204;27;20018;-73
2021/12/27 01:25:36;;;;;;;;;;;5.60;99.90;;;;;;5133612;27;20657;-73
2021/12/27 01:28:02;;;;;;;;;;;5.60;99.90;;;;;;5134372;27;20224;-72
2021/12/27 01:30:28;;;;;;;;;;;5.50;99.90;;;;;;5133217;27;20257;-73
2021/12/27 01:32:58;;;;;;;;;;;5.50;99.90;;;;;;5134263;27;19964;-73
2021/12/27 01:35:24;;;;;;;;;;;5.50;99.90;;;;;;5133365;27;20379;-74
2021/12/27 01:37:51;;;;;;;;;;;5.30;99.90;;;;;;5134063;27;19908;-73
2021/12/27 01:40:17;;;;;;;;;;;5.30;99.90;;;;;;5134178;27;19934;-73
2021/12/27 01:42:58;;;;;;;;;;;5.20;99.90;;;;;;5115089;27;19915;-73
2021/12/27 01:45:24;;;;;;;;;;;5.20;99.90;;;;;;5132879;27;19989;-73
2021/12/27 01:47:50;;;;;;;;;;;5.10;99.90;;;;;;5134014;27;20005;-73
2021/12/27 01:50:16;;;;;;;;;;;5.10;99.90;;;;;;5115393;27;19932;-73
2021/12/27 01:52:41;;;;;;;;;;;5.10;99.90;;;;;;5132884;27;19939;-73
2021/12/27 01:55:07;;;;;;;;;;;5.00;99.90;;;;;;5133737;27;19950;-73
2021/12/27 01:57:32;;;;;;;;;;;5.00;99.90;;;;;;5132665;27;19907;-73
2021/12/27 01:59:58;;;;;;;;;;;5.10;99.90;;;;;;5133668;27;19930;-73
2021/12/27 02:02:24;;;;;;;;;;;5.00;99.90;;;;;;5133025;27;19915;-73
2021/12/27 02:04:50;;;;;;;;;;;4.90;99.90;;;;;;5132910;27;20052;-73
2021/12/27 02:07:15;;;;;;;;;;;4.80;99.90;;;;;;5133797;27;19964;-73
2021/12/27 02:09:51;;;;;;;;;;;4.60;99.90;;;;;;5132433;27;19907;-73
2021/12/27 02:12:17;;;;;;;;;;;4.60;99.90;;;;;;5133553;27;19950;-72
2021/12/27 02:14:42;;;;;;;;;;;4.60;99.90;;;;;;5132612;27;19939;-73
2021/12/27 02:17:08;;;;;;;;;;;4.60;99.90;;;;;;5133875;27;19908;-73
2021/12/27 02:19:35;;;;;;;;;;;4.50;99.90;;;;;;5132992;27;19960;-73
2021/12/27 02:22:01;;;;;;;;;;;4.40;99.90;;;;;;5133710;27;19907;-72
2021/12/27 02:24:27;;;;;;;;;;;4.40;99.90;;;;;;5132563;28;20320;-74
2021/12/27 02:26:52;;;;;;;;;;;4.40;99.90;;;;;;5133438;28;19914;-73
2021/12/27 02:29:18;;;;;;;;;;;4.50;99.90;;;;;;5133753;28;19922;-73
2021/12/27 02:31:44;;;;;;;;;;;4.50;99.90;;;;;;5132656;28;19911;-73
2021/12/27 02:34:10;;;;;;;;;;;4.30;99.90;;;;;;5133673;28;19914;-73
2021/12/27 02:36:35;;;;;;;;;;;4.30;99.90;;;;;;5114151;28;19911;-73
2021/12/27 02:39:01;;;;;;;;;;;4.30;99.90;;;;;;5133208;28;19994;-73
2021/12/27 02:41:27;;;;;;;;;;;4.30;99.90;;;;;;5132573;28;19932;-73
2021/12/27 02:43:52;;;;;;;;;;;4.30;99.90;;;;;;5133248;28;19908;-73
2021/12/27 02:46:18;;;;;;;;;;;4.30;99.90;;;;;;5132967;28;20400;-73
2021/12/27 02:48:46;;;;;;;;;;;4.30;99.90;;;;;;5132128;28;19904;-73
2021/12/27 02:51:12;;;;;;;;;;;4.30;99.90;;;;;;5133318;28;20080;-73
2021/12/27 02:53:38;;;;;;;;;;;4.20;99.90;;;;;;5132497;28;20424;-73
2021/12/27 02:56:06;;;;;;;;;;;4.20;99.90;;;;;;5133069;28;19907;-72
2021/12/27 02:58:32;;;;;;;;;;;4.20;99.90;;;;;;5132254;28;19907;-74
2021/12/27 03:01:04;;;;;;;;;;;4.10;99.90;;;;;;5133208;28;20010;-73
2021/12/27 03:03:29;;;;;;;;;;;4.10;99.90;;;;;;5132169;28;20407;-73
2021/12/27 03:05:55;;;;;;;;;;;4.10;99.90;;;;;;5132929;28;19968;-73
2021/12/27 03:08:21;;;;;;;;;;;4.10;99.90;;;;;;5114746;28;19908;-73
2021/12/27 03:10:48;;;;;;;;;;;4.10;99.90;;;;;;5132121;28;19933;-73
2021/12/27 03:13:20;;;;;;;;;;;4.10;99.90;;;;;;5133170;28;19911;-73
2021/12/27 03:15:46;;;;;;;;;;;4.00;99.90;;;;;;5134230;27;20139;-72
2021/12/27 03:18:12;;;;;;;;;;;4.00;99.90;;;;;;5136770;27;19986;-72
2021/12/27 03:20:37;;;;;;;;;;;4.00;99.90;;;;;;5136082;27;19908;-73
2021/12/27 03:23:03;;;;;;;;;;;4.00;99.90;;;;;;5136951;27;19908;-73
2021/12/27 03:25:28;;;;;;;;;;;3.90;99.90;;;;;;5117562;27;19914;-74
2021/12/27 03:27:54;;;;;;;;;;;3.90;99.90;;;;;;5136727;27;19907;-73
2021/12/27 03:30:21;;;;;;;;;;;3.90;99.90;;;;;;5118140;27;19911;-73
2021/12/27 03:32:47;;;;;;;;;;;3.80;99.90;;;;;;5136103;27;19918;-73
2021/12/27 03:35:15;;;;;;;;;;;3.90;99.90;;;;;;5136372;27;19908;-73
2021/12/27 03:37:45;;;;;;;;;;;3.80;99.90;;;;;;5135651;27;19907;-74
2021/12/27 03:40:11;;;;;;;;;;;3.70;99.90;;;;;;5136361;27;20275;-72
2021/12/27 03:42:38;;;;;;;;;;;3.70;99.90;;;;;;5135725;27;19908;-73
2021/12/27 03:45:05;;;;;;;;;;;3.70;99.90;;;;;;5136438;27;19952;-73
2021/12/27 03:47:30;;;;;;;;;;;3.60;99.90;;;;;;5135629;27;19908;-73
2021/12/27 03:49:56;;;;;;;;;;;3.60;99.90;;;;;;5136062;27;20418;-73
2021/12/27 03:52:21;;;;;;;;;;;3.60;99.90;;;;;;5136305;27;19908;-72
2021/12/27 03:54:47;;;;;;;;;;;3.60;99.90;;;;;;5135649;27;19917;-73
2021/12/27 03:57:15;;;;;;;;;;;3.60;99.90;;;;;;5136037;27;19932;-73
2021/12/27 04:02:13;;;;;;;;;;;3.70;99.90;;;;;;5136143;27;19994;-73
2021/12/27 04:04:39;;;;;;;;;;;3.70;99.90;;;;;;5135328;27;19915;-73
2021/12/27 04:07:07;;;;;;;;;;;3.80;99.90;;;;;;5136390;27;20398;-73
2021/12/27 04:09:33;;;;;;;;;;;3.90;99.90;;;;;;5136302;27;19911;-73
2021/12/27 04:11:59;;;;;;;;;;;3.90;99.90;;;;;;5117665;27;19918;-73
2021/12/27 04:14:25;;;;;;;;;;;4.00;99.90;;;;;;5135636;27;19908;-73
2021/12/27 04:16:51;;;;;;;;;;;4.20;99.90;;;;;;5134886;27;20497;-72
2021/12/27 04:19:17;;;;;;;;;;;4.20;99.90;;;;;;5135463;27;20367;-73
2021/12/27 04:21:43;;;;;;;;;;;4.30;99.90;;;;;;5134984;27;19956;-73
2021/12/27 04:24:08;;;;;;;;;;;4.30;99.90;;;;;;5135477;27;19930;-73
2021/12/27 04:26:34;;;;;;;;;;;4.30;99.90;;;;;;5133683;27;19907;-74
2021/12/27 04:29:00;;;;;;;;;;;4.20;99.90;;;;;;5135482;27;19908;-73
2021/12/27 04:31:25;;;;;;;;;;;4.10;99.90;;;;;;5135503;27;19920;-73
2021/12/27 04:33:51;;;;;;;;;;;4.00;99.90;;;;;;5134971;27;19910;-72
2021/12/27 04:36:16;;;;;;;;;;;4.00;99.90;;;;;;5135141;27;20317;-73
2021/12/27 04:38:42;;;;;;;;;;;4.00;99.90;;;;;;5134639;27;19958;-74
2021/12/27 04:41:09;;;;;;;;;;;4.00;99.90;;;;;;5116681;27;19907;-73
2021/12/27 04:43:35;;;;;;;;;;;3.90;99.90;;;;;;5134548;27;19934;-73
2021/12/27 04:46:01;;;;;;;;;;;3.80;99.90;;;;;;5135544;27;19958;-73
2021/12/27 04:48:27;;;;;;;;;;;3.80;99.90;;;;;;5134870;27;19914;-73
2021/12/27 04:50:53;;;;;;;;;;;3.80;99.90;;;;;;5133806;27;19915;-72
2021/12/27 04:53:19;;;;;;;;;;;3.70;99.90;;;;;;5135087;27;19907;-73
2021/12/27 04:55:45;;;;;;;;;;;3.70;99.90;;;;;;5115799;27;20360;-73
2021/12/27 04:58:12;;;;;;;;;;;3.70;99.90;;;;;;5134833;27;19908;-72
2021/12/27 05:00:38;;;;;;;;;;;3.70;99.90;;;;;;5134099;27;19908;-73
2021/12/27 05:03:04;;;;;;;;;;;3.80;99.90;;;;;;5134688;27;19952;-72
2021/12/27 05:05:31;;;;;;;;;;;3.70;99.90;;;;;;5134658;27;19955;-72
2021/12/27 05:07:57;;;;;;;;;;;3.70;99.90;;;;;;5133902;27;19908;-72
2021/12/27 05:10:24;;;;;;;;;;;3.70;99.90;;;;;;5134690;27;19911;-73
2021/12/27 05:12:49;;;;;;;;;;;3.60;99.90;;;;;;5133702;27;19911;-73
2021/12/27 05:15:15;;;;;;;;;;;3.60;99.90;;;;;;5134647;27;19912;-73
2021/12/27 05:17:41;;;;;;;;;;;3.60;99.90;;;;;;5098133;27;20005;-73
2021/12/27 05:20:08;;;;;;;;;;;3.60;99.90;;;;;;5134539;27;19960;-74
2021/12/27 05:22:34;;;;;;;;;;;3.50;99.90;;;;;;5134320;27;19955;-73
2021/12/27 05:25:00;;;;;;;;;;;3.50;99.90;;;;;;5133607;27;19969;-72
2021/12/27 05:27:26;;;;;;;;;;;3.50;99.90;;;;;;5133958;27;20376;-72
2021/12/27 05:29:51;;;;;;;;;;;3.50;99.90;;;;;;5133093;27;19973;-73
2021/12/27 05:32:17;;;;;;;;;;;3.50;99.90;;;;;;5116011;27;19962;-73
2021/12/27 05:34:42;;;;;;;;;;;3.60;99.90;;;;;;5115199;27;20344;-72
2021/12/27 05:37:08;;;;;;;;;;;3.70;99.90;;;;;;5134480;27;20352;-73
2021/12/27 05:39:35;;;;;;;;;;;3.70;99.90;;;;;;5133864;27;19908;-73
2021/12/27 05:42:00;;;;;;;;;;;3.70;99.90;;;;;;5133157;27;20014;-73
2021/12/27 05:44:26;;;;;;;;;;;3.70;99.90;;;;;;5134119;27;19998;-73
2021/12/27 05:46:51;;;;;;;;;;;3.80;99.90;;;;;;5133258;27;20068;-74
2021/12/27 05:49:17;;;;;;;;;;;3.80;99.90;;;;;;5115434;27;19930;-74
2021/12/27 05:51:43;;;;;;;;;;;3.80;99.90;;;;;;5133435;27;19919;-73
2021/12/27 05:54:09;;;;;;;;;;;3.90;99.90;;;;;;5133847;27;19911;-73
2021/12/27 05:56:35;;;;;;;;;;;3.90;99.90;;;;;;5133911;27;19907;-73
2021/12/27 05:59:01;;;;;;;;;;;4.00;99.90;;;;;;5132754;27;19913;-73
2021/12/27 06:01:26;;;;;;;;;;;3.90;99.90;;;;;;5115403;27;20309;-73
2021/12/27 06:03:55;;;;;;;;;;;3.90;99.90;;;;;;5133082;27;19937;-73
2021/12/27 06:06:20;;;;;;;;;;;3.90;99.90;;;;;;5133770;27;19957;-73
2021/12/27 06:08:46;;;;;;;;;;;3.80;99.90;;;;;;5133040;27;19955;-73
2021/12/27 06:11:11;;;;;;;;;;;3.80;99.90;;;;;;5133447;27;20371;-73
2021/12/27 06:13:37;;;;;;;;;;;3.80;99.90;;;;;;5133496;27;19959;-73
2021/12/27 06:16:03;;;;;;;;;;;3.80;99.90;;;;;;5133068;27;20326;-73
2021/12/27 06:18:28;;;;;;;;;;;3.80;99.90;;;;;;5133377;27;19915;-73
2021/12/27 06:20:54;;;;;;;;;;;3.90;99.90;;;;;;5132784;27;19952;-73
2021/12/27 06:23:19;;;;;;;;;;;4.00;99.90;;;;;;5133741;27;19908;-73
2021/12/27 06:25:45;;;;;;;;;;;4.00;99.90;;;;;;5133039;28;20072;-73
2021/12/27 06:28:11;;;;;;;;;;;4.00;99.90;;;;;;5114990;28;19907;-73
2021/12/27 06:30:37;;;;;;;;;;;4.10;99.90;;;;;;5133460;28;20014;-73
2021/12/27 06:33:03;;;;;;;;;;;4.10;99.90;;;;;;5132587;28;19915;-73
2021/12/27 06:35:28;;;;;;;;;;;4.10;99.90;;;;;;5133534;28;19907;-73
2021/12/27 06:37:54;;;;;;;;;;;4.00;99.90;;;;;;5132584;28;19907;-73
2021/12/27 06:40:20;;;;;;;;;;;4.00;99.90;;;;;;5133394;28;20352;-73
2021/12/27 06:42:46;;;;;;;;;;;3.90;99.90;;;;;;5132328;28;19915;-74
2021/12/27 06:45:12;;;;;;;;;;;4.00;99.90;;;;;;5133516;28;19961;-73
2021/12/27 06:47:38;;;;;;;;;;;4.00;99.90;;;;;;5133062;28;20280;-73
2021/12/27 06:50:04;;;;;;;;;;;3.90;99.90;;;;;;5133208;27;20445;-73
2021/12/27 06:52:30;;;;;;;;;;;3.90;99.90;;;;;;5137448;27;19957;-73
2021/12/27 06:54:56;;;;;;;;;;;3.90;99.90;;;;;;5136610;27;19916;-73
2021/12/27 06:57:21;;;;;;;;;;;3.90;99.90;;;;;;5137050;27;19950;-73
2021/12/27 06:59:47;;;;;;;;;;;3.80;99.90;;;;;;5136293;27;20413;-73
2021/12/27 07:02:13;;;;;;;;;;;3.80;99.90;;;;;;5118659;27;20409;-73
2021/12/27 07:04:38;;;;;;;;;;;3.80;99.90;;;;;;5137308;27;19907;-72
2021/12/27 07:07:04;;;;;;;;;;;3.80;99.90;;;;;;5136178;27;20691;-73
2021/12/27 07:09:30;;;;;;;;;;;3.90;99.90;;;;;;5137026;27;20010;-73
2021/12/27 07:11:55;;;;;;;;;;;3.90;99.90;;;;;;5136083;27;20281;-73
2021/12/27 07:14:21;;;;;;;;;;;4.00;99.90;;;;;;5136830;27;19908;-73
2021/12/27 07:16:46;;;;;;;;;;;4.00;99.90;;;;;;5136178;27;19908;-73
2021/12/27 07:19:12;;;;;;;;;;;4.10;99.90;;;;;;5136643;27;20356;-72
2021/12/27 07:21:38;;;;;;;;;;;4.10;99.90;;;;;;5137173;27;19915;-73
2021/12/27 07:24:03;;;;;;;;;;;4.10;99.90;;;;;;5135758;27;20447;-73
2021/12/27 07:26:29;;;;;;;;;;;4.10;99.90;;;;;;5136709;27;19915;-72
2021/12/27 07:28:55;;;;;;;;;;;4.20;99.90;;;;;;5136175;27;19933;-73
2021/12/27 07:31:20;;;;;;;;;;;4.20;99.90;;;;;;5136349;27;20431;-73
2021/12/27 07:33:46;;;;;;;;;;;4.30;99.90;;;;;;5135726;27;19966;-74
2021/12/27 07:36:12;;;;;;;;;;;4.30;99.90;;;;;;5136030;27;19969;-72
2021/12/27 07:38:38;;;;;;;;;;;4.20;99.90;;;;;;5136539;27;19908;-73
2021/12/27 07:41:04;;;;;;;;;;;4.30;99.90;;;;;;5135688;27;19915;-73
2021/12/27 07:43:30;;;;;;;;;;;4.40;99.90;;;;;;5136203;27;19914;-73
2021/12/27 07:45:55;;;;;;;;;;;4.40;99.90;;;;;;5135549;27;19950;-73
2021/12/27 07:48:21;;;;;;;;;;;4.50;99.90;;;;;;5135994;27;19907;-72
2021/12/27 07:50:47;;;;;;;;;;;4.50;99.90;;;;;;5135226;27;19919;-74
2021/12/27 07:53:12;;;;;;;;;;;4.60;99.90;;;;;;5135760;27;19907;-73
2021/12/27 07:55:38;;;;;;;;;;;4.60;99.90;;;;;;5136192;27;19914;-72
2021/12/27 07:58:04;;;;;;;;;;;4.60;99.90;;;;;;5135423;27;20434;-72
2021/12/27 08:00:30;;;;;;;;;;;4.60;99.90;;;;;;5135871;27;19914;-72
2021/12/27 08:02:55;;;;;;;;;;;4.60;99.90;;;;;;5133317;27;19948;-73
2021/12/27 08:05:21;;;;;;;;;;;4.50;99.90;;;;;;5135735;27;19908;-73
2021/12/27 08:07:47;;;;;;;;;;;4.50;99.90;;;;;;5135439;27;20279;-73
2021/12/27 08:10:13;;;;;;;;;;;4.50;99.90;;;;;;5135062;27;20264;-73
2021/12/27 08:12:39;;;;;;;;;;;4.50;99.90;;;;;;5135597;27;20371;-72
2021/12/27 08:15:05;;;;;;;;;;;4.50;99.90;;;;;;5134452;27;19914;-72
2021/12/27 08:17:31;;;;;;;;;;;4.50;99.90;;;;;;5135599;27;19993;-72
2021/12/27 08:19:56;;;;;;;;;;;4.40;99.90;;;;;;5134918;27;20411;-73
2021/12/27 08:22:22;;;;;;;;;;;4.40;99.90;;;;;;5135367;27;19908;-73
2021/12/27 08:24:51;;;;;;;;;;;4.40;99.90;;;;;;5134949;27;20352;-73
2021/12/27 08:27:18;;;;;;;;;;;4.40;99.90;;;;;;5135397;27;20011;-72
2021/12/27 08:29:44;;;;;;;;;;;4.40;99.90;;;;;;5135027;27;19912;-73
2021/12/27 08:32:09;;;;;;;;;;;4.30;99.90;;;;;;5134690;27;19907;-73
2021/12/27 08:34:35;;;;;;;;;;;4.20;99.90;;;;;;5135419;27;20379;-73
2021/12/27 08:37:00;;;;;;;;;;;4.20;99.90;;;;;;5134511;27;20006;-73
2021/12/27 08:39:26;;;;;;;;;;;4.20;99.90;;;;;;5135019;27;20363;-73
2021/12/27 08:41:52;;;;;;;;;;;4.30;99.90;;;;;;5116265;27;19973;-74
2021/12/27 08:44:18;;;;;;;;;;;4.20;99.90;;;;;;5135299;27;19954;-74
2021/12/27 08:46:43;;;;;;;;;;;4.20;99.90;;;;;;5135156;27;20352;-74
2021/12/27 08:49:09;;;;;;;;;;;4.10;99.90;;;;;;5134319;27;19914;-74
2021/12/27 08:51:35;;;;;;;;;;;4.20;99.90;;;;;;5134920;27;19920;-74
2021/12/27 08:54:01;;;;;;;;;;;4.20;99.90;;;;;;5134155;27;19914;-74
2021/12/27 08:56:27;;;;;;;;;;;4.30;99.90;;;;;;5134864;27;19908;-74
2021/12/27 08:58:54;;;;;;;;;;;4.30;99.90;;;;;;5134407;27;19915;-75
2021/12/27 09:01:19;;;;;;;;;;;4.50;99.90;;;;;;5134699;27;19914;-74
2021/12/27 09:03:45;;;;;;;;;;;4.50;99.90;;;;;;5134886;27;20280;-73
2021/12/27 09:06:10;;;;;;;;;;;4.50;99.90;;;;;;5133848;27;19990;-74
2021/12/27 09:08:36;;;;;;;;;;;4.50;99.90;;;;;;5134729;27;20275;-73
2021/12/27 09:11:01;;;;;;;;;;;4.60;99.90;;;;;;5133644;27;19916;-74
2021/12/27 09:13:28;;;;;;;;;;;4.70;99.90;;;;;;5133842;27;19907;-74
2021/12/27 09:15:55;;;;;;;;;;;4.70;99.90;;;;;;5134098;27;19908;-76
2021/12/27 09:18:20;;;;;;;;;;;4.80;99.90;;;;;;5134422;27;19972;-75
2021/12/27 09:20:46;;;;;;;;;;;4.90;99.90;;;;;;5133978;27;19981;-74
2021/12/27 09:23:11;;;;;;;;;;;5.00;99.90;;;;;;5138864;27;19999;-73
2021/12/27 09:25:37;;;;;;;;;;;5.20;99.90;;;;;;5125658;27;20268;-74
2021/12/27 09:28:02;;;;;;;;;;;5.20;99.90;;;;;;5144180;27;19907;-74
2021/12/27 09:30:28;;;;;;;;;;;5.30;99.90;;;;;;5142527;27;19915;-75
2021/12/27 09:32:54;;;;;;;;;;;5.40;99.90;;;;;;5144881;27;20330;-75
2021/12/27 09:35:20;;;;;;;;;;;5.60;99.90;;;;;;5148691;27;19907;-74
2021/12/27 09:37:45;;;;;;;;;;;5.80;99.90;;;;;;5154852;27;20015;-74
2021/12/27 09:40:11;;;;;;;;;;;5.90;99.90;;;;;;5135619;27;19907;-74
2021/12/27 09:42:37;;;;;;;;;;;6.00;99.90;;;;;;5136170;27;20282;-75
2021/12/27 09:45:04;;;;;;;;;;;6.30;99.90;;;;;;5153875;27;19914;-74
2021/12/27 09:47:31;;;;;;;;;;;6.30;99.90;;;;;;5154266;27;20432;-74
2021/12/27 09:49:56;;;;;;;;;;;6.40;99.90;;;;;;5153581;27;19930;-76
2021/12/27 09:52:24;;;;;;;;;;;6.50;99.90;;;;;;5154284;27;20331;-74
2021/12/27 09:54:50;;;;;;;;;;;6.60;99.90;;;;;;5154565;27;20278;-74
2021/12/27 09:57:15;;;;;;;;;;;6.70;99.90;;;;;;5153409;27;19907;-73
2021/12/27 09:59:41;;;;;;;;;;;6.90;99.90;;;;;;5154498;27;20363;-74
2021/12/27 10:02:07;;;;;;;;;;;6.90;99.90;;;;;;5134913;27;19914;-74
2021/12/27 10:04:32;;;;;;;;;;;7.00;99.90;;;;;;5154706;27;19908;-73
2021/12/27 10:06:58;;;;;;;;;;;7.10;99.90;;;;;;5153572;27;19965;-74
2021/12/27 10:09:23;;;;;;;;;;;7.20;99.90;;;;;;5154282;27;19907;-72
2021/12/27 10:11:50;;;;;;;;;;;7.30;99.90;;;;;;5154637;27;19966;-73
2021/12/27 10:14:20;;;;;;;;;;;7.30;99.90;;;;;;5153305;27;19914;-73
2021/12/27 10:16:53;;;;;;;;;;;7.40;99.90;;;;;;5154260;27;20320;-74
2021/12/27 10:19:20;;;;;;;;;;;7.50;99.90;;;;;;5153498;27;20017;-74
2021/12/27 10:21:46;;;;;;;;;;;7.70;99.90;;;;;;5135501;27;20363;-74
2021/12/27 10:24:16;;;;;;;;;;;7.80;99.90;;;;;;5152646;27;20241;-73
2021/12/27 10:26:46;;;;;;;;;;;7.90;99.90;;;;;;5153917;27;19917;-74
2021/12/27 10:29:28;;;;;;;;;;;8.00;99.90;;;;;;5153402;27;19907;-74
2021/12/27 10:31:58;;;;;;;;;;;8.10;99.90;;;;;;5153941;27;20055;-73
2021/12/27 10:34:25;;;;;;;;;;;8.10;99.90;;;;;;5153687;27;19998;-73
2021/12/27 10:37:00;;;;;;;;;;;8.20;99.90;;;;;;5154111;27;20398;-73
2021/12/27 10:39:41;;;;;;;;;;;8.20;99.90;;;;;;5154146;27;20047;-72
2021/12/27 10:42:07;;;;;;;;;;;8.30;99.90;;;;;;5153251;27;20040;-72
2021/12/27 10:44:34;;;;;;;;;;;8.30;99.90;;;;;;5153904;27;20390;-73
2021/12/27 10:46:59;;;;;;;;;;;8.40;99.90;;;;;;5153844;27;19908;-75
2021/12/27 10:49:43;;;;;;;;;;;8.50;99.90;;;;;;5134430;27;19914;-72
2021/12/27 10:52:09;;;;;;;;;;;8.50;99.90;;;;;;5132344;28;19920;-71
2021/12/27 10:54:35;;;;;;;;;;;8.50;99.90;;;;;;5132880;28;19972;-72
2021/12/27 10:57:02;;;;;;;;;;;8.50;99.90;;;;;;5132495;28;19908;-75
2021/12/27 10:59:28;;;;;;;;;;;8.60;99.90;;;;;;5133136;28;20328;-73
2021/12/27 11:01:53;;;;;;;;;;;8.60;99.90;;;;;;5132780;28;19954;-73
2021/12/27 11:04:19;;;;;;;;;;;8.60;99.90;;;;;;5113397;28;20446;-73
2021/12/27 11:06:45;;;;;;;;;;;8.60;99.90;;;;;;5132756;28;19907;-73
2021/12/27 11:09:14;;;;;;;;;;;8.70;99.90;;;;;;5132307;28;20355;-73
2021/12/27 11:11:40;;;;;;;;;;;8.70;99.90;;;;;;5132855;28;20010;-73
2021/12/27 11:14:05;;;;;;;;;;;8.70;99.90;;;;;;5113762;28;19970;-73
2021/12/27 11:16:31;;;;;;;;;;;8.80;99.90;;;;;;5132888;28;19911;-73
2021/12/27 11:18:58;;;;;;;;;;;8.70;99.90;;;;;;5132789;28;19968;-73
2021/12/27 11:21:44;;;;;;;;;;;8.80;99.90;;;;;;5113804;28;19947;-72
2021/12/27 11:24:10;;;;;;;;;;;8.80;99.90;;;;;;5132073;28;19907;-73
2021/12/27 11:26:37;;;;;;;;;;;8.80;99.90;;;;;;5132820;28;20386;-73
2021/12/27 11:29:14;;;;;;;;;;;8.80;99.90;;;;;;5113960;28;19911;-74
2021/12/27 11:31:40;;;;;;;;;;;8.80;99.90;;;;;;5132818;28;19915;-73
2021/12/27 11:34:07;;;;;;;;;;;8.80;99.90;;;;;;5131413;28;19915;-73
2021/12/27 11:36:34;;;;;;;;;;;8.80;99.90;;;;;;5134173;27;19972;-72
2021/12/27 11:39:16;;;;;;;;;;;8.80;99.90;;;;;;5136221;27;19907;-72
2021/12/27 11:41:41;;;;;;;;;;;8.80;99.90;;;;;;5136552;27;20378;-72
2021/12/27 11:44:08;;;;;;;;;;;8.80;99.90;;;;;;5135268;27;19907;-73
2021/12/27 11:46:49;;;;;;;;;;;8.80;99.90;;;;;;5136387;27;19952;-73
2021/12/27 11:49:16;;;;;;;;;;;8.90;99.90;;;;;;5135434;27;19975;-73
2021/12/27 11:51:42;;;;;;;;;;;8.80;99.90;;;;;;5117253;27;20403;-73
2021/12/27 11:54:27;;;;;;;;;;;8.90;99.90;;;;;;5135434;27;19952;-74
2021/12/27 11:56:53;;;;;;;;;;;8.90;99.90;;;;;;5135487;27;19915;-73
2021/12/27 11:59:21;;;;;;;;;;;8.90;99.90;;;;;;5135414;27;19907;-73
2021/12/27 12:01:48;;;;;;;;;;;8.90;99.90;;;;;;5135441;27;19914;-73
2021/12/27 12:04:33;;;;;;;;;;;9.00;99.90;;;;;;5134069;27;19908;-73
2021/12/27 12:06:58;;;;;;;;;;;9.00;99.90;;;;;;5135300;27;19908;-73
2021/12/27 12:09:24;;;;;;;;;;;9.10;99.90;;;;;;5134316;27;20508;-73
2021/12/27 12:12:05;;;;;;;;;;;9.10;99.90;;;;;;5135442;27;19918;-72
2021/12/27 12:14:34;;;;;;;;;;;9.10;99.90;;;;;;5134941;27;19907;-73
2021/12/27 12:17:01;;;;;;;;;;;9.10;99.90;;;;;;5135094;27;19952;-73
2021/12/27 12:19:42;;;;;;;;;;;9.10;99.90;;;;;;5134289;27;20018;-73
2021/12/27 12:22:27;;;;;;;;;;;9.20;99.90;;;;;;5115545;27;19907;-75
2021/12/27 12:25:04;;;;;;;;;;;9.10;99.90;;;;;;5134464;27;19908;-73
2021/12/27 12:27:30;;;;;;;;;;;9.20;99.90;;;;;;5134348;27;19915;-73
2021/12/27 12:29:56;;;;;;;;;;;9.20;99.90;;;;;;5134691;27;20329;-74
2021/12/27 12:32:22;;;;;;;;;;;9.20;99.90;;;;;;5116121;27;19961;-73
2021/12/27 12:34:48;;;;;;;;;;;9.20;99.90;;;;;;5134162;27;19911;-73
2021/12/27 12:37:14;;;;;;;;;;;9.20;99.90;;;;;;5134334;27;19990;-74
2021/12/27 12:39:44;;;;;;;;;;;9.30;99.90;;;;;;5134686;27;19946;-73
2021/12/27 12:42:12;;;;;;;;;;;9.30;99.90;;;;;;5134058;27;20366;-74
2021/12/27 12:44:47;;;;;;;;;;;9.30;99.90;;;;;;5134512;27;19942;-73
2021/12/27 12:47:13;;;;;;;;;;;9.30;99.90;;;;;;5133200;27;19908;-74
2021/12/27 12:49:39;;;;;;;;;;;9.30;99.90;;;;;;5133971;27;20309;-73
2021/12/27 12:52:05;;;;;;;;;;;9.30;99.90;;;;;;5133885;27;19962;-74
2021/12/27 12:54:34;;;;;;;;;;;9.30;99.90;;;;;;5134148;27;19919;-73
2021/12/27 12:57:04;;;;;;;;;;;9.30;99.90;;;;;;5134402;27;19954;-72
2021/12/27 12:59:32;;;;;;;;;;;9.40;99.90;;;;;;5133770;27;20413;-74
2021/12/27 13:02:02;;;;;;;;;;;9.40;99.90;;;;;;5133774;27;19908;-73
2021/12/27 13:04:45;;;;;;;;;;;9.50;99.90;;;;;;5115087;27;20388;-72
2021/12/27 13:07:12;;;;;;;;;;;9.50;99.90;;;;;;5133141;27;19958;-74
2021/12/27 13:09:41;;;;;;;;;;;9.50;99.90;;;;;;5134012;27;20002;-73
2021/12/27 13:12:07;;;;;;;;;;;9.50;99.90;;;;;;5133577;27;20379;-74
2021/12/27 13:14:33;;;;;;;;;;;9.50;99.90;;;;;;5133776;27;19946;-72
2021/12/27 13:17:09;;;;;;;;;;;9.50;99.90;;;;;;5133842;27;19918;-73
2021/12/27 13:19:55;;;;;;;;;;;9.60;99.90;;;;;;5134315;27;19930;-73
2021/12/27 13:22:43;;;;;;;;;;;9.60;99.90;;;;;;5141147;27;19907;-73
2021/12/27 13:25:10;;;;;;;;;;;9.60;99.90;;;;;;5142704;27;20371;-75
2021/12/27 13:27:36;;;;;;;;;;;9.60;99.90;;;;;;5142657;27;19907;-73
2021/12/27 13:30:03;;;;;;;;;;;9.60;99.90;;;;;;5138699;27;19960;-74
2021/12/27 13:32:29;;;;;;;;;;;9.60;99.90;;;;;;5139150;27;20505;-73
2021/12/27 13:34:54;;;;;;;;;;;9.50;99.90;;;;;;5143370;27;19962;-74
2021/12/27 13:37:20;;;;;;;;;;;9.50;99.90;;;;;;5142435;27;19930;-73
2021/12/27 13:39:46;;;;;;;;;;;9.50;99.90;;;;;;5123905;27;20376;-72
2021/12/27 13:42:13;;;;;;;;;;;9.50;99.90;;;;;;5143658;27;19907;-73
2021/12/27 13:44:38;;;;;;;;;;;9.50;99.90;;;;;;5142845;27;19907;-73
2021/12/27 13:47:06;;;;;;;;;;;9.50;99.90;;;;;;5142825;27;19933;-73
2021/12/27 13:49:31;;;;;;;;;;;9.50;99.90;;;;;;5125562;27;19908;-72
2021/12/27 13:51:58;;;;;;;;;;;9.50;99.90;;;;;;5124484;27;19919;-74
2021/12/27 13:54:24;;;;;;;;;;;9.50;99.90;;;;;;5107934;27;19998;-73
2021/12/27 13:56:51;;;;;;;;;;;9.50;99.90;;;;;;5144304;27;20014;-72
2021/12/27 13:59:18;;;;;;;;;;;9.50;99.90;;;;;;5132188;27;19911;-73
2021/12/27 14:02:03;;;;;;;;;;;9.60;99.90;;;;;;5133354;27;19907;-73
2021/12/27 14:04:30;;;;;;;;;;;9.60;99.90;;;;;;5132417;27;19910;-73
2021/12/27 14:06:57;;;;;;;;;;;9.60;99.90;;;;;;5132898;27;19912;-74
2021/12/27 14:09:26;;;;;;;;;;;9.60;99.90;;;;;;5132107;27;19914;-74
2021/12/27 14:11:56;;;;;;;;;;;9.60;99.90;;;;;;5132889;27;19967;-74
2021/12/27 14:14:40;;;;;;;;;;;9.50;99.90;;;;;;5132286;27;20361;-73
2021/12/27 14:17:06;;;;;;;;;;;9.60;99.90;;;;;;5132653;27;20376;-72
2021/12/27 14:19:31;;;;;;;;;;;9.60;99.90;;;;;;5131825;27;19951;-73
2021/12/27 14:21:57;;;;;;;;;;;9.60;99.90;;;;;;5132634;27;19907;-73
2021/12/27 14:24:33;;;;;;;;;;;9.60;99.90;;;;;;5132093;27;19908;-73
2021/12/27 14:27:00;;;;;;;;;;;9.60;99.90;;;;;;5133249;27;20391;-73
2021/12/27 14:29:26;;;;;;;;;;;9.60;99.90;;;;;;5131748;28;19907;-73
2021/12/27 14:31:56;;;;;;;;;;;9.60;99.90;;;;;;5132598;28;19916;-74
2021/12/27 14:34:39;;;;;;;;;;;9.60;99.90;;;;;;5132123;28;20091;-74
2021/12/27 14:37:06;;;;;;;;;;;9.60;99.90;;;;;;5132765;28;19907;-73